Time;durP1;ratioP1;P1;durP2;ratioP2;P2;SDS_P1;SDS_P2;PMS_P1;PMS_P2;Temp;Humidity;BMP_temperature;BMP_pressure;BME280_temperature;BME280_humidity;BME280_pressure;Samples;Min_cycle;Max_cycle;Signal;HPM_P1;HPM_P2
2023/08/16 00:00:08;;;;;;;9.90;7.82;;;;;;;17.46;100.00;101211.38;5028141;28;20048;-92
2023/08/16 00:02:39;;;;;;;11.43;8.30;;;;;;;17.43;100.00;101208.84;5048112;28;20045;-88
2023/08/16 00:05:08;;;;;;;10.80;8.48;;;;;;;17.43;100.00;101206.19;5043275;28;20041;-91
2023/08/16 00:07:36;;;;;;;9.65;8.63;;;;;;;17.42;100.00;101203.59;5028511;28;20155;-87
2023/08/16 00:10:04;;;;;;;10.23;8.45;;;;;;;17.44;100.00;101212.34;5021881;28;20047;-88
2023/08/16 00:12:31;;;;;;;11.48;8.32;;;;;;;17.42;100.00;101208.88;5045270;28;20051;-88
2023/08/16 00:14:58;;;;;;;8.98;7.55;;;;;;;17.42;100.00;101209.75;5042797;28;20123;-90
2023/08/16 00:17:25;;;;;;;8.85;7.95;;;;;;;17.41;100.00;101208.00;5042615;28;20056;-88
2023/08/16 00:19:52;;;;;;;9.40;8.32;;;;;;;17.42;100.00;101215.03;5051769;28;20135;-87
2023/08/16 00:22:19;;;;;;;9.88;8.88;;;;;;;17.41;100.00;101217.72;5027410;28;20047;-88
2023/08/16 00:24:46;;;;;;;10.27;7.57;;;;;;;17.41;100.00;101213.28;5058621;28;20052;-87
2023/08/16 00:27:12;;;;;;;10.98;8.25;;;;;;;17.39;100.00;101216.88;5042932;28;20276;-87
2023/08/16 00:29:39;;;;;;;8.13;7.07;;;;;;;17.36;100.00;101213.44;5038836;28;20065;-90
2023/08/16 00:32:10;;;;;;;10.25;7.78;;;;;;;17.33;100.00;101218.78;5054196;28;20069;-93
2023/08/16 00:34:37;;;;;;;11.52;8.27;;;;;;;17.33;100.00;101213.50;5038399;28;20073;-88
2023/08/16 00:37:04;;;;;;;11.07;7.53;;;;;;;17.33;100.00;101216.16;5040981;28;20527;-87
2023/08/16 00:39:30;;;;;;;8.15;6.90;;;;;;;17.33;100.00;101218.78;5037753;28;20041;-89
2023/08/16 00:41:57;;;;;;;7.50;6.80;;;;;;;17.30;100.00;101210.06;5042746;28;20042;-87
2023/08/16 00:44:24;;;;;;;10.82;6.07;;;;;;;17.28;100.00;101217.19;5027245;28;20076;-89
2023/08/16 00:46:50;;;;;;;11.65;7.38;;;;;;;17.24;100.00;101203.19;5048747;28;20159;-87
2023/08/16 00:49:17;;;;;;;9.02;6.95;;;;;;;17.23;100.00;101205.88;5041516;28;20064;-90
2023/08/16 00:51:45;;;;;;;8.00;6.95;;;;;;;17.22;100.00;101207.63;5032589;28;20143;-87
2023/08/16 00:54:11;;;;;;;7.15;6.45;;;;;;;17.18;100.00;101206.88;5042386;28;20155;-88
2023/08/16 00:56:38;;;;;;;8.50;7.25;;;;;;;17.17;100.00;101201.63;5025614;28;20072;-86
2023/08/16 00:59:06;;;;;;;7.75;5.50;;;;;;;17.13;100.00;101207.88;5028100;28;20052;-85
2023/08/16 01:01:33;;;;;;;8.60;7.40;;;;;;;17.10;100.00;101208.00;5041561;28;20052;-85
2023/08/16 01:03:59;;;;;;;9.25;6.60;;;;;;;17.09;100.00;101211.53;5046414;28;20049;-87
2023/08/16 01:06:26;;;;;;;8.10;7.18;;;;;;;17.09;100.00;101222.13;5038792;28;20048;-88
2023/08/16 01:08:53;;;;;;;7.57;6.40;;;;;;;17.08;100.00;101220.38;5042702;28;20067;-87
2023/08/16 01:12:00;;;;;;;10.48;6.25;;;;;;;17.04;100.00;101216.97;5045717;28;20044;-90
2023/08/16 01:14:46;;;;;;;7.18;6.07;;;;;;;17.00;100.00;101216.19;5042927;28;20045;-88
2023/08/16 01:17:15;;;;;;;6.68;5.93;;;;;;;17.00;100.00;101215.28;5058516;28;20038;-87
2023/08/16 01:19:42;;;;;;;9.02;6.85;;;;;;;16.97;100.00;101215.38;5040753;28;20095;-90
2023/08/16 01:22:50;;;;;;;12.40;6.32;;;;;;;16.98;100.00;101206.53;5035101;28;20049;-92
2023/08/16 01:25:48;;;;;;;7.15;5.97;;;;;;;16.94;100.00;101210.19;5042431;28;20723;-90
2023/08/16 01:28:15;;;;;;;9.00;6.28;;;;;;;16.91;100.00;101224.34;5049693;28;20025;-87
2023/08/16 01:30:45;;;;;;;7.40;5.70;;;;;;;16.87;100.00;101220.88;5046483;28;20037;-87
2023/08/16 01:33:14;;;;;;;7.85;5.35;;;;;;;16.86;100.00;101215.66;5044167;28;20037;-87
2023/08/16 01:35:42;;;;;;;7.93;6.32;;;;;;;16.87;100.00;101222.69;5045366;28;20055;-87
2023/08/16 01:38:12;;;;;;;7.43;5.22;;;;;;;16.84;100.00;101213.03;5028056;28;20050;-92
2023/08/16 01:41:00;;;;;;;8.00;5.57;;;;;;;16.86;100.00;101223.56;5037738;28;20083;-90
2023/08/16 01:43:29;;;;;;;7.28;5.03;;;;;;;16.82;100.00;101214.00;5032932;28;20063;-89
2023/08/16 01:45:57;;;;;;;8.65;6.10;;;;;;;16.82;100.00;101216.63;5026074;28;20111;-87
2023/08/16 01:48:25;;;;;;;7.55;5.35;;;;;;;16.81;100.00;101221.03;5041501;28;20045;-88
2023/08/16 01:50:52;;;;;;;6.57;5.65;;;;;;;16.80;100.00;101223.72;5037388;28;20049;-90
2023/08/16 01:53:19;;;;;;;7.32;5.63;;;;;;;16.77;100.00;101222.03;5031671;28;20052;-87
2023/08/16 01:55:46;;;;;;;7.03;6.43;;;;;;;16.75;100.00;101230.91;5031627;28;20041;-92
2023/08/16 01:58:13;;;;;;;7.63;6.57;;;;;;;16.73;100.00;101227.44;5067973;28;20063;-90
2023/08/16 02:00:40;;;;;;;8.02;5.53;;;;;;;16.70;100.00;101223.97;5060572;28;20029;-90
2023/08/16 02:03:07;;;;;;;10.20;6.03;;;;;;;16.66;100.00;101226.72;5050908;28;20044;-87
2023/08/16 02:05:34;;;;;;;7.28;6.57;;;;;;;16.63;100.00;101229.44;5034889;28;20041;-89
2023/08/16 02:08:00;;;;;;;5.53;4.95;;;;;;;16.63;100.00;101229.44;5046339;28;20048;-86
2023/08/16 02:10:27;;;;;;;9.30;6.38;;;;;;;16.59;100.00;101228.66;5058059;28;20041;-86
2023/08/16 02:12:53;;;;;;;7.57;6.47;;;;;;;16.58;100.00;101231.34;5047645;28;20067;-88
2023/08/16 02:15:21;;;;;;;7.55;6.00;;;;;;;16.58;100.00;101237.47;5065748;28;20049;-85
2023/08/16 02:17:47;;;;;;;14.95;6.93;;;;;;;16.60;100.00;101240.09;5054046;28;20069;-85
2023/08/16 02:20:17;;;;;;;7.13;5.05;;;;;;;16.57;100.00;101242.81;5025101;28;20037;-87
2023/08/16 02:22:43;;;;;;;7.63;5.88;;;;;;;16.56;100.00;101235.78;5034121;28;20511;-86
2023/08/16 02:25:13;;;;;;;5.10;4.60;;;;;;;16.52;100.00;101240.28;5066950;28;20065;-91
2023/08/16 02:27:40;;;;;;;6.60;5.75;;;;;;;16.49;100.00;101230.66;5040940;28;20060;-86
2023/08/16 02:30:11;;;;;;;6.35;5.63;;;;;;;16.50;100.00;101234.16;5043831;28;20041;-87
2023/08/16 02:32:38;;;;;;;5.55;5.07;;;;;;;16.47;100.00;101237.75;5027123;28;20057;-88
2023/08/16 02:35:05;;;;;;;9.27;5.35;;;;;;;16.44;100.00;101237.84;5030413;28;20049;-86
2023/08/16 02:37:32;;;;;;;8.00;5.57;;;;;;;16.40;100.00;101236.16;5045466;28;20059;-86
2023/08/16 02:39:59;;;;;;;5.18;4.63;;;;;;;16.37;100.00;101245.03;5042893;28;20029;-86
2023/08/16 02:42:26;;;;;;;6.82;4.35;;;;;;;16.36;100.00;101252.97;5028586;28;20398;-87
2023/08/16 02:44:52;;;;;;;6.93;5.13;;;;;;;16.34;100.00;101246.88;5043235;28;20044;-86
2023/08/16 02:47:19;;;;;;;5.45;4.47;;;;;;;16.33;100.00;101253.06;5055899;28;20045;-86
2023/08/16 02:49:46;;;;;;;6.25;5.13;;;;;;;16.30;100.00;101246.06;5029872;28;20040;-85
2023/08/16 02:52:13;;;;;;;6.15;4.60;;;;;;;16.30;100.00;101246.06;5043537;28;20155;-86
2023/08/16 02:54:45;;;;;;;8.40;5.65;;;;;;;16.29;100.00;101244.34;5035311;28;20053;-85
2023/08/16 02:57:16;;;;;;;10.60;4.80;;;;;;;16.26;100.00;101238.28;5044899;28;20099;-85
2023/08/16 02:59:47;;;;;;;6.25;3.92;;;;;;;16.25;100.00;101234.75;5032771;28;21358;-86
2023/08/16 03:02:15;;;;;;;8.68;5.03;;;;;;;16.24;100.00;101235.66;5036314;28;20073;-86
2023/08/16 03:04:42;;;;;;;10.43;6.43;;;;;;;16.24;100.00;101234.78;5041895;28;20049;-85
2023/08/16 03:07:15;;;;;;;6.70;5.70;;;;;;;16.24;100.00;101237.44;5038925;28;20509;-86
2023/08/16 03:09:44;;;;;;;5.25;4.78;;;;;;;16.24;100.00;101242.72;5039736;28;20069;-85
2023/08/16 03:12:11;;;;;;;6.10;5.50;;;;;;;16.24;100.00;101245.34;5049067;28;20071;-87
2023/08/16 03:14:38;;;;;;;5.50;5.00;;;;;;;16.22;100.00;101250.69;5050281;28;20101;-87
2023/08/16 03:17:05;;;;;;;4.95;4.43;;;;;;;16.20;100.00;101249.84;5060540;28;20049;-85
2023/08/16 03:19:32;;;;;;;5.95;5.30;;;;;;;16.21;100.00;101252.44;5013612;28;20052;-88
2023/08/16 03:21:58;;;;;;;5.80;4.75;;;;;;;16.20;100.00;101257.75;5046459;28;20041;-85
2023/08/16 03:24:28;;;;;;;7.75;5.38;;;;;;;16.18;100.00;101268.34;5063146;28;20041;-86
2023/08/16 03:26:55;;;;;;;10.95;6.20;;;;;;;16.21;100.00;101273.56;5045761;28;20041;-85
2023/08/16 03:29:22;;;;;;;7.85;4.88;;;;;;;16.24;100.00;101272.63;5052608;28;20093;-86
2023/08/16 03:31:49;;;;;;;4.43;4.13;;;;;;;16.27;100.00;101276.97;5023660;28;20528;-86
2023/08/16 03:34:16;;;;;;;6.30;4.90;;;;;;;16.27;100.00;101274.34;5048780;28;20056;-90
2023/08/16 03:36:43;;;;;;;4.97;4.20;;;;;;;16.27;100.00;101279.63;5049140;28;20056;-86
2023/08/16 03:39:14;;;;;;;5.82;4.40;;;;;;;16.21;100.00;101278.84;5039271;28;20088;-88
2023/08/16 03:41:40;;;;;;;4.72;4.13;;;;;;;16.18;100.00;101288.63;5021498;28;20054;-87
2023/08/16 03:44:07;;;;;;;5.63;4.70;;;;;;;16.16;100.00;101288.66;5038640;28;20115;-87
2023/08/16 03:46:37;;;;;;;5.55;5.05;;;;;;;16.13;100.00;101286.09;5045293;28;20059;-87
2023/08/16 03:49:04;;;;;;;6.22;4.95;;;;;;;16.11;100.00;101295.78;5041197;28;20053;-85
2023/08/16 03:51:31;;;;;;;8.88;5.75;;;;;;;16.12;100.00;101289.63;5035959;28;20041;-88
2023/08/16 03:53:58;;;;;;;6.93;5.32;;;;;;;16.10;100.00;101295.84;5054420;28;20048;-87
2023/08/16 03:56:25;;;;;;;6.63;5.75;;;;;;;16.06;100.00;101300.34;5024667;28;20045;-87
2023/08/16 03:58:52;;;;;;;5.88;4.57;;;;;;;16.04;100.00;101297.72;5040986;28;20046;-87
2023/08/16 04:01:19;;;;;;;9.70;5.80;;;;;;;16.04;100.00;101297.72;5044081;28;20056;-86
2023/08/16 04:03:47;;;;;;;6.15;5.28;;;;;;;16.04;100.00;101289.78;5042291;28;20785;-88
2023/08/16 04:06:14;;;;;;;5.90;5.00;;;;;;;16.04;100.00;101289.78;5033401;28;20052;-91
2023/08/16 04:08:41;;;;;;;6.13;5.45;;;;;;;16.03;100.00;101285.44;5044494;28;20215;-87
2023/08/16 04:11:08;;;;;;;7.47;4.85;;;;;;;16.10;100.00;101291.44;5058475;28;20068;-88
2023/08/16 04:13:35;;;;;;;6.57;5.25;;;;;;;16.14;100.00;101295.75;5060972;28;20049;-86
2023/08/16 04:16:07;;;;;;;4.53;4.13;;;;;;;16.17;100.00;101298.31;5034255;28;20067;-88
2023/08/16 04:18:36;;;;;;;7.40;4.63;;;;;;;16.21;100.00;101310.53;5032311;28;20124;-89
2023/08/16 04:21:05;;;;;;;4.63;4.18;;;;;;;16.23;100.00;101299.97;5059206;28;20037;-87
2023/08/16 04:23:32;;;;;;;5.13;4.63;;;;;;;16.24;100.00;101306.97;5045953;28;20030;-87
2023/08/16 04:25:59;;;;;;;9.80;5.93;;;;;;;16.28;100.00;101315.69;5040374;28;20099;-88
2023/08/16 04:28:29;;;;;;;13.35;5.22;;;;;;;16.29;100.00;101312.16;5040467;28;20042;-88
2023/08/16 04:30:55;;;;;;;6.78;4.25;;;;;;;16.31;100.00;101313.88;5050952;28;20048;-87
2023/08/16 04:33:22;;;;;;;7.55;4.70;;;;;;;16.33;100.00;101312.03;5042924;28;20049;-88
2023/08/16 04:35:49;;;;;;;4.82;4.43;;;;;;;16.36;100.00;101306.72;5060722;28;20439;-87
2023/08/16 04:38:16;;;;;;;4.55;3.83;;;;;;;16.40;100.00;101304.88;5050001;28;20045;-88
2023/08/16 04:40:43;;;;;;;3.80;3.47;;;;;;;16.45;100.00;101315.31;5032154;28;20093;-87
2023/08/16 04:43:09;;;;;;;5.20;4.13;;;;;;;16.50;100.00;101316.97;5041585;28;20320;-86
2023/08/16 04:45:36;;;;;;;4.47;4.07;;;;;;;16.53;100.00;101303.69;5056969;28;20500;-87
2023/08/16 04:48:03;;;;;;;8.80;4.10;;;;;;;16.60;100.00;101306.19;5030757;28;20128;-86
2023/08/16 04:50:30;;;;;;;5.53;3.55;;;;;;;16.67;100.00;101313.94;5027803;28;20041;-86
2023/08/16 04:52:57;;;;;;;4.65;3.88;;;;;;;16.73;100.00;101314.69;5043449;28;20536;-86
2023/08/16 04:55:25;;;;;;;8.80;4.22;;;;;;;16.81;100.00;101321.50;5058744;28;20045;-87
2023/08/16 04:57:54;;;;;;;3.90;3.60;;;;;;;16.89;100.00;101325.75;5031281;28;20045;-87
2023/08/16 05:00:25;;;;;;;3.83;3.50;;;;;;;16.94;100.00;101329.19;5037064;28;20726;-87
2023/08/16 05:02:52;;;;;;;4.53;3.38;;;;;;;16.96;100.00;101332.66;5044229;28;20296;-86
2023/08/16 05:05:19;;;;;;;7.63;3.75;;;;;;;16.98;100.00;101341.44;5029757;28;20057;-88
2023/08/16 05:07:45;;;;;;;3.83;3.45;;;;;;;16.98;100.00;101341.44;5050498;28;20055;-89
2023/08/16 05:10:13;;;;;;;7.32;3.33;;;;;;;17.05;100.00;101345.66;5071317;28;20100;-87
2023/08/16 05:12:40;;;;;;;5.38;3.40;;;;;;;17.13;100.00;101346.34;5051001;28;20114;-86
2023/08/16 05:15:11;;;;;;;4.68;3.33;;;;;;;17.27;100.00;101353.91;5048677;28;20041;-88
2023/08/16 05:17:38;;;;;;;6.30;3.75;;;;;;;17.42;100.00;101354.44;5049013;28;20040;-86
2023/08/16 05:20:06;;;;;;;5.63;4.40;;;;;;;17.52;100.00;101358.56;5036013;28;20117;-86
2023/08/16 05:22:34;;;;;;;3.45;3.20;;;;;;;17.62;100.00;101359.19;5029144;28;20048;-86
2023/08/16 05:25:12;;;;;;;7.18;3.75;;;;;;;17.72;100.00;101359.78;5050286;28;20048;-85
2023/08/16 05:27:39;;;;;;;5.15;3.90;;;;;;;17.80;100.00;101369.28;5050745;28;20037;-86
2023/08/16 05:30:07;;;;;;;12.90;4.45;;;;;;;17.86;100.00;101369.09;5030507;28;20136;-88
2023/08/16 05:32:34;;;;;;;5.10;3.55;;;;;;;17.90;100.00;101371.66;5050312;28;20076;-86
2023/08/16 05:35:06;;;;;;;7.78;3.72;;;;;;;17.98;100.00;101377.66;5032961;28;20115;-87
2023/08/16 05:37:39;;;;;;;7.60;4.05;;;;;;;18.00;100.00;101374.06;5055690;28;20133;-87
2023/08/16 05:40:09;;;;;;;3.95;3.03;;;;;;;18.01;100.00;101366.97;5041865;28;20148;-89
2023/08/16 05:42:36;;;;;;;6.90;2.85;;;;;;;17.98;100.00;101367.94;5017637;28;20045;-86
2023/08/16 05:45:02;;;;;;;3.75;3.10;;;;;;;17.93;100.00;101372.47;5028503;28;20053;-87
2023/08/16 05:47:29;;;;;;;3.03;2.28;;;;;;;17.87;100.00;101372.63;5045357;28;20049;-84
2023/08/16 05:50:04;;;;;;;4.88;2.22;;;;;;;17.89;100.00;101380.53;5045822;28;20160;-85
2023/08/16 05:52:32;;;;;;;4.60;2.67;;;;;;;17.95;100.00;101389.22;5058868;28;20041;-85
2023/08/16 05:55:02;;;;;;;4.32;2.08;;;;;;;18.05;100.00;101392.47;5030246;28;20043;-89
2023/08/16 05:57:28;;;;;;;4.35;1.90;;;;;;;18.18;100.00;101385.03;5017273;28;20381;-88
2023/08/16 05:59:57;;;;;;;2.10;1.60;;;;;;;18.25;100.00;101391.91;5040208;28;20040;-88
2023/08/16 06:02:25;;;;;;;2.17;1.90;;;;;;;18.33;100.00;101395.19;5030831;28;20041;-87
2023/08/16 06:04:53;;;;;;;4.82;1.60;;;;;;;18.39;96.99;101390.63;5060178;28;20048;-86
2023/08/16 06:07:20;;;;;;;4.30;1.40;;;;;;;18.39;94.62;101387.97;5045561;28;20045;-86
2023/08/16 06:09:47;;;;;;;2.22;1.35;;;;;;;18.41;92.80;101402.03;5036058;28;20072;-87
2023/08/16 06:12:17;;;;;;;1.50;1.20;;;;;;;18.48;94.80;101392.97;5020349;28;20045;-89
2023/08/16 06:14:44;;;;;;;1.60;1.45;;;;;;;18.57;92.74;101392.69;5049910;28;20060;-86
2023/08/16 06:17:11;;;;;;;3.58;1.20;;;;;;;18.60;92.98;101389.94;5026583;28;20069;-86
2023/08/16 06:19:37;;;;;;;3.38;1.20;;;;;;;18.69;93.26;101407.38;5051881;28;20048;-85
2023/08/16 06:22:04;;;;;;;2.60;1.23;;;;;;;18.69;92.07;101399.41;5043343;28;20099;-86
2023/08/16 06:24:36;;;;;;;4.32;1.60;;;;;;;18.72;91.96;101391.38;5058805;28;20076;-87
2023/08/16 06:27:02;;;;;;;5.03;1.55;;;;;;;18.82;92.21;101394.59;5053304;28;20111;-89
2023/08/16 06:29:29;;;;;;;3.97;1.00;;;;;;;18.94;91.03;101396.00;5059205;28;20092;-86
2023/08/16 06:31:56;;;;;;;3.85;1.20;;;;;;;19.00;90.81;101409.94;5059016;28;20071;-88
2023/08/16 06:34:24;;;;;;;5.25;1.90;;;;;;;19.06;90.69;101408.91;5061562;28;20049;-89
2023/08/16 06:36:52;;;;;;;0.80;0.63;;;;;;;19.15;90.75;101418.31;5044152;28;20049;-86
2023/08/16 06:39:18;;;;;;;2.38;1.05;;;;;;;19.22;90.35;101416.38;5055339;28;20103;-86
2023/08/16 06:41:45;;;;;;;5.15;2.42;;;;;;;19.38;90.08;101420.22;5061117;28;20518;-87
2023/08/16 06:44:12;;;;;;;3.10;1.10;;;;;;;19.58;89.93;101424.88;5058957;28;20041;-87
2023/08/16 06:46:39;;;;;;;1.65;0.93;;;;;;;19.69;87.41;101434.25;5042220;28;20113;-85
2023/08/16 06:49:05;;;;;;;2.60;1.00;;;;;;;19.72;87.20;101432.34;5057563;28;20107;-88
2023/08/16 06:51:32;;;;;;;4.43;1.75;;;;;;;19.80;87.62;101440.94;5048992;28;20990;-85
2023/08/16 06:53:59;;;;;;;2.25;1.00;;;;;;;19.82;87.53;101452.38;5043309;28;20049;-86
2023/08/16 06:56:27;;;;;;;3.72;0.80;;;;;;;19.79;88.09;101441.84;5057946;28;20045;-86
2023/08/16 06:58:55;;;;;;;4.40;1.67;;;;;;;19.82;87.48;101440.91;5042748;28;20048;-88
2023/08/16 07:01:21;;;;;;;2.30;1.55;;;;;;;19.94;87.25;101440.47;5052179;28;20443;-87
2023/08/16 07:03:49;;;;;;;3.03;1.55;;;;;;;20.06;86.59;101449.78;5052808;28;20082;-90
2023/08/16 07:06:16;;;;;;;2.30;1.23;;;;;;;20.19;86.36;101436.06;5077553;28;20041;-88
2023/08/16 07:08:43;;;;;;;3.30;1.33;;;;;;;20.30;85.90;101437.38;5045999;28;20127;-84
2023/08/16 07:11:09;;;;;;;1.98;1.40;;;;;;;20.47;85.34;101436.75;5036594;28;20403;-85
2023/08/16 07:13:36;;;;;;;7.90;3.10;;;;;;;20.66;84.54;101444.91;5066033;28;20092;-87
2023/08/16 07:16:03;;;;;;;3.95;1.52;;;;;;;20.77;84.16;101446.31;5044432;28;20049;-91
2023/08/16 07:18:29;;;;;;;3.90;1.40;;;;;;;20.82;82.50;101449.66;5052522;28;20045;-89
2023/08/16 07:20:56;;;;;;;4.32;1.55;;;;;;;21.01;82.61;101448.94;5042236;28;20060;-86
2023/08/16 07:23:22;;;;;;;5.75;1.10;;;;;;;21.20;82.83;101446.38;5042576;28;20207;-87
2023/08/16 07:25:59;;;;;;;2.30;1.67;;;;;;;21.40;81.41;101454.41;5041273;28;20045;-89
2023/08/16 07:28:27;;;;;;;3.63;1.75;;;;;;;21.48;81.10;101451.41;5060000;28;20045;-89
2023/08/16 07:30:56;;;;;;;5.43;1.33;;;;;;;21.62;81.43;101449.06;5034099;28;20067;-86
2023/08/16 07:33:23;;;;;;;3.22;0.95;;;;;;;21.90;81.00;101450.56;5053737;28;20033;-88
2023/08/16 07:35:50;;;;;;;3.88;1.17;;;;;;;22.11;80.19;101446.06;5057287;28;20111;-88
2023/08/16 07:38:18;;;;;;;3.67;1.10;;;;;;;22.40;79.37;101451.06;5064536;28;20232;-86
2023/08/16 07:40:48;;;;;;;2.70;1.02;;;;;;;22.72;77.60;101451.34;5075518;28;20044;-91
2023/08/16 07:43:16;;;;;;;3.38;1.25;;;;;;;22.73;77.34;101451.25;5055467;28;20053;-88
2023/08/16 07:45:43;;;;;;;4.10;1.40;;;;;;;22.83;77.14;101459.72;5050056;28;20057;-87
2023/08/16 07:48:09;;;;;;;4.50;1.30;;;;;;;23.04;73.65;101456.94;5057371;28;20033;-91
2023/08/16 07:50:36;;;;;;;4.68;1.77;;;;;;;23.27;75.10;101448.69;5058455;28;20145;-88
2023/08/16 07:53:15;;;;;;;2.53;2.22;;;;;;;23.65;71.18;101446.81;5051776;28;20047;-91
2023/08/16 07:55:42;;;;;;;2.88;1.60;;;;;;;24.07;72.03;101449.09;5043774;28;20045;-91
2023/08/16 07:58:08;;;;;;;2.95;1.95;;;;;;;24.58;65.05;101449.00;5052384;28;20125;-89
2023/08/16 08:00:35;;;;;;;6.88;2.67;;;;;;;24.83;62.25;101446.81;5046190;28;20098;-89
2023/08/16 08:03:02;;;;;;;3.55;1.17;;;;;;;24.81;59.83;101452.25;5046845;28;20215;-88
2023/08/16 08:05:30;;;;;;;1.88;1.13;;;;;;;24.53;61.14;101452.91;5051565;28;20064;-85
2023/08/16 08:08:11;;;;;;;4.18;1.40;;;;;;;24.72;61.82;101455.47;5064226;28;20049;-92
2023/08/16 08:10:38;;;;;;;4.13;1.35;;;;;;;25.12;61.32;101468.38;5050298;28;20041;-92
2023/08/16 08:13:04;;;;;;;6.28;1.65;;;;;;;25.30;60.67;101461.94;5050978;28;20095;-87
2023/08/16 08:15:41;;;;;;;1.77;1.10;;;;;;;25.26;59.20;101455.06;5063183;28;20070;-93
2023/08/16 08:18:10;;;;;;;4.78;1.20;;;;;;;26.02;59.56;101459.50;5059622;28;20059;-88
2023/08/16 08:20:38;;;;;;;2.20;1.27;;;;;;;26.85;54.63;101460.66;5059279;28;20041;-86
2023/08/16 08:23:05;;;;;;;2.30;1.42;;;;;;;26.79;53.90;101455.66;5050411;28;20060;-82
2023/08/16 08:25:32;;;;;;;1.55;0.73;;;;;;;26.50;55.47;101461.91;5050117;28;20052;-84
2023/08/16 08:28:00;;;;;;;1.65;1.25;;;;;;;26.21;55.50;101459.22;5053837;28;20068;-88
2023/08/16 08:30:28;;;;;;;1.55;0.95;;;;;;;26.74;56.32;101453.28;5064592;28;20045;-87
2023/08/16 08:32:58;;;;;;;2.97;1.10;;;;;;;27.51;53.43;101456.28;5051194;28;20096;-85
2023/08/16 08:35:26;;;;;;;2.75;0.88;;;;;;;27.35;53.38;101461.81;5030387;28;20053;-85
2023/08/16 08:37:53;;;;;;;2.60;0.82;;;;;;;27.15;54.15;101464.97;5035897;28;20151;-89
2023/08/16 08:40:21;;;;;;;2.83;1.23;;;;;;;27.64;53.30;101461.69;5045184;28;20052;-87
2023/08/16 08:42:53;;;;;;;3.55;0.98;;;;;;;27.27;53.04;101461.44;5033712;28;20049;-85
2023/08/16 08:45:20;;;;;;;;;;;;;;;27.45;52.73;101466.59;5065012;28;20052;-85
2023/08/16 08:47:48;;;;;;;2.03;1.30;;;;;;;27.65;53.29;101467.91;5028915;28;20700;-90
2023/08/16 08:50:15;;;;;;;7.70;1.85;;;;;;;27.80;51.88;101466.00;5049246;28;20052;-88
2023/08/16 08:52:50;;;;;;;7.28;1.50;;;;;;;27.74;52.15;101464.59;5052024;28;20048;-85
2023/08/16 08:55:19;;;;;;;7.63;1.00;;;;;;;27.50;51.33;101467.16;5029452;28;20052;-86
2023/08/16 08:57:50;;;;;;;3.90;1.85;;;;;;;26.99;54.25;101478.56;5046611;28;20037;-82
2023/08/16 09:00:21;;;;;;;6.60;1.90;;;;;;;26.90;52.65;101469.25;5054150;28;20056;-83
2023/08/16 09:02:50;;;;;;;3.92;0.90;;;;;;;26.68;53.72;101459.03;5063576;28;20037;-86
2023/08/16 09:05:21;;;;;;;4.72;1.30;;;;;;;26.53;54.69;101464.41;5059351;28;20049;-84
2023/08/16 09:07:49;;;;;;;5.05;1.35;;;;;;;26.60;54.88;101472.09;5052590;28;20151;-84
2023/08/16 09:10:17;;;;;;;2.47;1.20;;;;;;;26.25;55.60;101465.28;5047233;28;20056;-85
2023/08/16 09:12:44;;;;;;;3.10;1.40;;;;;;;25.80;57.36;101459.94;5050690;28;20457;-85
2023/08/16 09:15:11;;;;;;;3.03;1.10;;;;;;;25.88;57.60;101457.66;5028097;28;20493;-86
2023/08/16 09:17:38;;;;;;;1.88;0.85;;;;;;;26.22;57.19;101455.59;5034160;28;20072;-86
2023/08/16 09:20:07;;;;;;;3.70;0.70;;;;;;;27.40;54.07;101448.94;5035032;28;20044;-85
2023/08/16 09:22:34;;;;;;;2.30;1.52;;;;;;;28.17;52.37;101458.06;5026794;28;20087;-84
2023/08/16 09:25:10;;;;;;;2.13;1.00;;;;;;;28.50;50.71;101453.91;5049660;28;20116;-86
2023/08/16 09:27:37;;;;;;;0.98;0.85;;;;;;;28.48;51.62;101453.19;5016000;28;20135;-86
2023/08/16 09:30:05;;;;;;;1.02;0.73;;;;;;;28.05;51.96;101457.97;5049208;28;20033;-88
2023/08/16 09:32:34;;;;;;;2.63;1.00;;;;;;;27.81;53.33;101465.91;5032564;28;20037;-83
2023/08/16 09:35:03;;;;;;;1.85;1.00;;;;;;;27.89;53.32;101457.31;5043849;28;20601;-85
2023/08/16 09:37:33;;;;;;;3.22;1.08;;;;;;;28.26;52.62;101453.88;5063279;28;20037;-84
2023/08/16 09:40:04;;;;;;;2.05;0.70;;;;;;;28.73;50.60;101448.75;5049327;28;20043;-85
2023/08/16 09:42:33;;;;;;;3.10;0.80;;;;;;;29.07;48.04;101448.91;5059472;28;20037;-84
2023/08/16 09:45:00;;;;;;;3.90;1.10;;;;;;;29.02;49.43;101452.81;5027378;28;20045;-82
2023/08/16 09:47:30;;;;;;;3.72;1.30;;;;;;;29.44;45.80;101452.41;5049381;28;20041;-83
2023/08/16 09:50:05;;;;;;;3.35;1.27;;;;;;;29.32;47.26;101453.34;5048076;28;20076;-84
2023/08/16 09:52:34;;;;;;;2.20;0.93;;;;;;;29.97;45.54;101456.50;5040218;28;20117;-84
2023/08/16 09:55:02;;;;;;;0.60;0.60;;;;;;;29.62;46.60;101462.75;5059844;28;20034;-83
2023/08/16 09:57:32;;;;;;;3.40;0.82;;;;;;;29.41;46.96;101449.94;5050402;28;20065;-83
2023/08/16 10:00:06;;;;;;;3.45;0.80;;;;;;;29.11;47.45;101455.81;5029140;28;20049;-84
2023/08/16 10:02:36;;;;;;;2.25;0.85;;;;;;;29.73;45.22;101446.59;5043227;28;20060;-82
2023/08/16 10:05:04;;;;;;;0.63;0.63;;;;;;;30.74;43.49;101435.97;5033596;28;20072;-84
2023/08/16 10:07:31;;;;;;;2.97;1.50;;;;;;;30.48;43.26;101442.53;5040991;28;20071;-84
2023/08/16 10:09:59;;;;;;;1.95;1.02;;;;;;;29.76;45.17;101440.97;5043010;28;20086;-83
2023/08/16 10:12:26;;;;;;;3.60;1.20;;;;;;;30.85;42.66;101438.66;5041064;28;20556;-84
2023/08/16 10:14:53;;;;;;;4.25;1.20;;;;;;;31.76;39.58;101432.84;5056969;28;20470;-84
2023/08/16 10:17:21;;;;;;;2.25;0.63;;;;;;;32.06;38.84;101428.44;5020320;28;20109;-84
2023/08/16 10:19:52;;;;;;;4.22;1.08;;;;;;;32.32;37.92;101431.59;5058960;28;20053;-84
2023/08/16 10:22:33;;;;;;;2.00;1.30;;;;;;;32.01;39.15;101428.88;5025718;28;20049;-82
2023/08/16 10:25:11;;;;;;;1.50;1.05;;;;;;;32.44;38.26;101432.34;5036961;28;20144;-83
2023/08/16 10:27:39;;;;;;;2.33;0.90;;;;;;;32.84;37.31;101425.16;5047378;28;20104;-84
2023/08/16 10:30:10;;;;;;;6.85;1.13;;;;;;;33.33;35.52;101426.03;5048621;28;20048;-85
2023/08/16 10:32:42;;;;;;;1.65;0.90;;;;;;;33.52;35.81;101425.16;5041902;28;20099;-87
2023/08/16 10:35:14;;;;;;;3.60;1.55;;;;;;;33.59;36.13;101423.56;5051052;28;20057;-87
2023/08/16 10:37:41;;;;;;;3.08;1.17;;;;;;;33.96;35.46;101422.78;5050608;28;20045;-84
2023/08/16 10:40:22;;;;;;;1.73;1.10;;;;;;;34.04;34.86;101426.59;5043370;28;20495;-83
2023/08/16 10:42:59;;;;;;;5.30;1.45;;;;;;;33.47;35.33;101422.88;5044382;28;20504;-84
2023/08/16 10:45:34;;;;;;;1.90;0.90;;;;;;;33.50;36.35;101420.88;5038704;28;20038;-82
2023/08/16 10:48:18;;;;;;;2.63;1.63;;;;;;;31.58;39.59;101433.44;5035286;28;20060;-82
2023/08/16 10:50:56;;;;;;;1.52;1.42;;;;;;;30.50;42.62;101439.69;5030155;28;20099;-82
2023/08/16 10:53:29;;;;;;;2.42;1.38;;;;;;;30.14;44.51;101439.81;5047550;28;20048;-86
2023/08/16 10:55:56;;;;;;;;;;;;;;;30.09;44.81;101433.06;5054626;28;20127;-87
2023/08/16 10:58:28;;;;;;;1.17;1.17;;;;;;;30.71;43.51;101434.38;5071519;28;19908;-88
2023/08/16 11:01:00;;;;;;;1.90;1.07;;;;;;;30.65;44.33;101440.28;5074084;28;20096;-85
2023/08/16 11:03:35;;;;;;;2.42;1.40;;;;;;;31.18;43.61;101434.13;5043846;28;20080;-83
2023/08/16 11:06:10;;;;;;;1.80;1.40;;;;;;;31.11;43.96;101438.34;5045972;28;20102;-84
2023/08/16 11:08:43;;;;;;;1.55;1.45;;;;;;;30.77;44.35;101427.59;5032356;28;20057;-82
2023/08/16 11:11:12;;;;;;;2.78;1.20;;;;;;;30.05;46.41;101436.97;5028996;28;20048;-86
2023/08/16 11:13:43;;;;;;;1.48;1.30;;;;;;;29.45;48.17;101432.56;5028606;28;20114;-82
2023/08/16 11:16:12;;;;;;;1.95;1.35;;;;;;;29.16;48.73;101442.84;5043188;28;20075;-87
2023/08/16 11:18:42;;;;;;;2.88;1.27;;;;;;;29.00;49.55;101438.59;5021255;28;20143;-83
2023/08/16 11:21:14;;;;;;;2.10;1.27;;;;;;;29.89;48.00;101440.03;5044090;28;20070;-83
2023/08/16 11:23:42;;;;;;;8.00;2.45;;;;;;;31.67;43.39;101445.34;5042933;28;20047;-85
2023/08/16 11:26:10;;;;;;;2.42;1.73;;;;;;;33.48;39.94;101445.47;5056443;28;20037;-83
2023/08/16 11:28:40;;;;;;;2.88;1.10;;;;;;;35.13;36.47;101444.03;5046095;28;20123;-82